Time;durP1;ratioP1;P1;durP2;ratioP2;P2;SDS_P1;SDS_P2;PMS_P1;PMS_P2;Temp;Humidity;BMP_temperature;BMP_pressure;BME280_temperature;BME280_humidity;BME280_pressure;Samples;Min_cycle;Max_cycle;Signal;HPM_P1;HPM_P2
2022/05/17 00:00:10;;;;;;;7.43;6.83;;;;;;;20.05;68.57;99675.81;5072913;28;20192;-62
2022/05/17 00:02:37;;;;;;;8.40;7.60;;;;;;;20.02;68.61;99675.84;5072950;28;20184;-61
2022/05/17 00:05:05;;;;;;;16.80;8.33;;;;;;;20.00;68.80;99670.66;5072771;28;20194;-62
2022/05/17 00:07:32;;;;;;;12.73;7.70;;;;;;;19.99;68.65;99671.56;5072830;28;20191;-61
2022/05/17 00:09:59;;;;;;;12.60;8.07;;;;;;;20.01;68.62;99661.94;5073051;28;20200;-62
2022/05/17 00:12:27;;;;;;;9.23;7.43;;;;;;;20.03;68.68;99664.50;5072446;28;20216;-61
2022/05/17 00:14:54;;;;;;;8.47;7.27;;;;;;;19.96;68.53;99652.50;5072132;28;20577;-61
2022/05/17 00:17:21;;;;;;;8.30;7.53;;;;;;;20.03;68.74;99662.78;5071521;28;20446;-62
2022/05/17 00:19:48;;;;;;;8.77;7.20;;;;;;;20.12;68.09;99661.72;5072749;28;20201;-62
2022/05/17 00:22:15;;;;;;;10.50;7.50;;;;;;;20.08;68.11;99661.84;5072745;28;20192;-62
2022/05/17 00:24:42;;;;;;;8.03;7.07;;;;;;;19.90;68.34;99631.72;5072825;28;20187;-61
2022/05/17 00:27:09;;;;;;;8.03;7.07;;;;;;;20.06;68.40;99659.25;5072370;28;20187;-61
2022/05/17 00:29:37;;;;;;;8.17;7.17;;;;;;;20.03;68.68;99657.56;5072394;28;20249;-61
2022/05/17 00:32:05;;;;;;;9.67;7.40;;;;;;;19.99;69.01;99652.44;5072327;28;20203;-61
2022/05/17 00:34:32;;;;;;;8.23;7.23;;;;;;;19.98;69.15;99658.53;5072482;28;20574;-62
2022/05/17 00:36:59;;;;;;;7.47;6.77;;;;;;;19.93;69.35;99649.94;5072168;28;20195;-62
2022/05/17 00:39:26;;;;;;;10.87;7.90;;;;;;;19.98;69.67;99658.53;5072236;28;20219;-61
2022/05/17 00:41:52;;;;;;;9.60;8.80;;;;;;;19.92;70.64;99666.47;5072197;28;20824;-61
2022/05/17 00:47:11;;;;;;;11.93;9.70;;;;;;;19.83;71.99;99653.63;5072156;28;20190;-62
2022/05/17 00:49:42;;;;;;;11.67;10.30;;;;;;;19.76;72.23;99662.41;5072231;28;20210;-61
2022/05/17 00:52:16;;;;;;;11.57;10.37;;;;;;;19.69;72.76;99659.09;5071826;28;20196;-62
2022/05/17 00:54:44;;;;;;;11.67;10.67;;;;;;;19.72;73.26;99671.19;5070985;28;20434;-62
2022/05/17 00:57:19;;;;;;;12.13;10.93;;;;;;;19.79;72.67;99663.25;5071952;28;20570;-62
2022/05/17 00:59:46;;;;;;;12.47;11.47;;;;;;;19.75;72.70;99656.34;5072133;28;20202;-61
2022/05/17 01:02:14;;;;;;;13.13;11.95;;;;;;;19.73;72.65;99654.66;5071068;28;20452;-61
2022/05/17 01:04:42;;;;;;;12.13;10.97;;;;;;;19.66;72.65;99643.50;5071646;28;20665;-61
2022/05/17 01:07:13;;;;;;;13.37;10.60;;;;;;;19.61;72.87;99640.13;5071617;28;20677;-62
2022/05/17 01:09:40;;;;;;;13.10;11.80;;;;;;;19.56;72.78;99646.28;5071744;28;20196;-62
2022/05/17 01:12:08;;;;;;;11.90;10.70;;;;;;;19.53;72.67;99656.78;5071500;28;20685;-62
2022/05/17 01:17:21;;;;;;;14.03;11.67;;;;;;;19.50;72.57;99641.19;5071444;28;20183;-62
2022/05/17 01:19:48;;;;;;;14.70;12.33;;;;;;;19.48;72.91;99655.97;5071349;28;20199;-61
2022/05/17 01:22:17;;;;;;;12.40;11.30;;;;;;;19.43;72.94;99643.03;5071110;28;20187;-61
2022/05/17 01:24:44;;;;;;;13.97;11.70;;;;;;;19.43;73.01;99649.09;5071261;28;20532;-61
2022/05/17 01:27:14;;;;;;;12.63;11.63;;;;;;;19.38;72.68;99648.31;5070665;28;20208;-61
2022/05/17 01:29:43;;;;;;;12.60;11.50;;;;;;;19.34;72.54;99644.00;5071636;28;20188;-61
2022/05/17 01:32:12;;;;;;;13.67;12.37;;;;;;;19.31;72.87;99643.22;5071226;28;20195;-61
2022/05/17 01:34:39;;;;;;;15.00;13.50;;;;;;;19.28;72.91;99638.06;5070531;28;20464;-61
2022/05/17 01:37:07;;;;;;;14.13;12.83;;;;;;;19.28;72.85;99640.66;5071075;28;20211;-61
2022/05/17 01:39:36;;;;;;;14.10;12.70;;;;;;;19.23;72.87;99627.69;5070932;28;20235;-61
2022/05/17 01:42:04;;;;;;;13.40;12.15;;;;;;;19.23;73.12;99635.50;5070739;28;20441;-61
2022/05/17 01:44:30;;;;;;;14.20;12.70;;;;;;;19.21;73.25;99632.06;5070854;28;20203;-61
2022/05/17 01:46:57;;;;;;;12.53;11.27;;;;;;;19.23;73.20;99630.28;5070720;28;20195;-61
2022/05/17 01:49:24;;;;;;;14.37;13.07;;;;;;;19.21;73.29;99632.06;5070816;28;20200;-61
2022/05/17 01:51:51;;;;;;;13.03;11.83;;;;;;;19.21;73.25;99631.22;5070543;28;20198;-62
2022/05/17 01:54:18;;;;;;;12.50;11.40;;;;;;;19.20;73.56;99626.91;5070429;28;20693;-62
2022/05/17 01:56:46;;;;;;;12.47;11.43;;;;;;;19.09;73.78;99608.81;5070810;28;20195;-62
2022/05/17 01:59:13;;;;;;;15.17;13.80;;;;;;;19.16;73.82;99623.47;5070555;28;20756;-62
2022/05/17 02:01:41;;;;;;;15.57;13.97;;;;;;;19.14;74.10;99624.38;5070558;28;20666;-61
2022/05/17 02:04:07;;;;;;;16.47;14.87;;;;;;;19.12;73.99;99626.13;5070424;28;20191;-62
2022/05/17 02:06:34;;;;;;;17.23;15.63;;;;;;;19.10;73.99;99617.50;5070811;28;20188;-61
2022/05/17 02:09:01;;;;;;;17.67;14.83;;;;;;;19.10;73.53;99617.50;5070479;28;20196;-61
2022/05/17 02:11:28;;;;;;;16.53;14.87;;;;;;;19.09;73.83;99614.03;5070672;28;20194;-61
2022/05/17 02:13:56;;;;;;;18.37;16.13;;;;;;;19.04;73.44;99618.44;5070235;28;20211;-61
2022/05/17 02:16:23;;;;;;;19.13;17.33;;;;;;;19.04;73.74;99620.19;5069708;28;20437;-62
2022/05/17 02:18:51;;;;;;;19.17;17.27;;;;;;;19.03;73.55;99623.69;5070238;28;20207;-62
2022/05/17 02:21:18;;;;;;;17.77;15.97;;;;;;;18.97;73.91;99624.66;5070836;28;20195;-62
2022/05/17 02:23:45;;;;;;;18.13;16.23;;;;;;;18.92;73.67;99628.22;5070289;28;20192;-63
2022/05/17 02:26:12;;;;;;;17.60;15.73;;;;;;;18.89;73.93;99628.25;5070692;28;20191;-62
2022/05/17 02:28:42;;;;;;;17.73;15.87;;;;;;;18.86;73.57;99631.78;5070311;28;20187;-62
2022/05/17 02:31:12;;;;;;;17.67;16.13;;;;;;;18.68;73.63;99619.00;5070385;28;20195;-62
2022/05/17 02:33:39;;;;;;;16.30;14.50;;;;;;;18.63;73.90;99620.81;5070599;28;20226;-61
2022/05/17 02:36:06;;;;;;;18.38;16.58;;;;;;;18.59;74.04;99613.94;5069892;28;20452;-62
2022/05/17 02:38:33;;;;;;;18.40;16.57;;;;;;;18.61;74.06;99613.03;5070092;28;20277;-61
2022/05/17 02:41:00;;;;;;;17.17;15.53;;;;;;;18.61;73.85;99618.25;5070167;28;20196;-62
2022/05/17 02:43:26;;;;;;;19.10;17.20;;;;;;;18.54;73.84;99603.59;5069828;28;20948;-62
2022/05/17 02:45:54;;;;;;;16.90;15.37;;;;;;;18.46;74.21;99607.19;5070060;28;20202;-61
2022/05/17 02:48:22;;;;;;;17.03;15.27;;;;;;;18.37;74.33;99617.69;5069863;28;20226;-61
2022/05/17 02:50:49;;;;;;;18.27;16.03;;;;;;;18.31;74.39;99612.56;5070280;28;20194;-61
2022/05/17 02:53:16;;;;;;;16.57;15.00;;;;;;;18.19;74.82;99624.84;5070166;28;20306;-61
2022/05/17 02:55:42;;;;;;;17.30;14.90;;;;;;;18.13;74.72;99621.44;5069901;28;20202;-62
2022/05/17 02:58:09;;;;;;;16.23;14.83;;;;;;;18.11;75.17;99626.69;5069924;28;20194;-63
2022/05/17 03:00:36;;;;;;;17.80;15.87;;;;;;;18.09;75.30;99623.25;5069802;28;20191;-62
2022/05/17 03:03:04;;;;;;;16.73;15.23;;;;;;;18.08;75.11;99624.13;5069836;28;20198;-62
2022/05/17 03:05:32;;;;;;;16.70;15.20;;;;;;;18.00;75.70;99623.34;5070073;28;20198;-57
2022/05/17 03:07:59;;;;;;;22.37;16.97;;;;;;;17.91;76.58;99627.81;5070272;28;20195;-56
2022/05/17 03:10:28;;;;;;;19.20;17.47;;;;;;;17.89;76.95;99635.59;5069776;28;20196;-57
2022/05/17 03:12:55;;;;;;;18.47;16.77;;;;;;;17.90;77.18;99632.13;5069927;28;20200;-56
2022/05/17 03:15:23;;;;;;;19.13;17.37;;;;;;;17.96;77.54;99636.41;5069841;28;20214;-57
2022/05/17 03:17:50;;;;;;;20.38;18.50;;;;;;;17.96;77.14;99634.69;5069357;28;20465;-57
2022/05/17 03:20:17;;;;;;;18.80;16.97;;;;;;;18.03;76.59;99633.72;5069778;28;20195;-57
2022/05/17 03:22:45;;;;;;;21.53;18.20;;;;;;;18.10;76.47;99642.31;5069965;28;20678;-57
2022/05/17 03:25:12;;;;;;;19.80;17.90;;;;;;;18.07;76.81;99640.63;5069493;28;20199;-57
2022/05/17 03:27:39;;;;;;;19.07;17.27;;;;;;;18.12;76.56;99646.63;5069828;28;20202;-57
2022/05/17 03:30:07;;;;;;;17.70;16.20;;;;;;;18.01;76.76;99640.69;5069837;28;20199;-57
2022/05/17 03:32:34;;;;;;;19.07;17.10;;;;;;;18.00;76.68;99646.75;5069571;28;20192;-58
2022/05/17 03:35:01;;;;;;;18.10;16.50;;;;;;;18.02;76.32;99647.56;5069427;28;20211;-58
2022/05/17 03:37:28;;;;;;;18.33;16.73;;;;;;;18.07;76.08;99652.75;5069611;28;20613;-58
2022/05/17 03:39:57;;;;;;;18.53;16.70;;;;;;;18.08;76.00;99639.72;5069261;28;20634;-58
2022/05/17 03:42:23;;;;;;;17.43;15.93;;;;;;;18.07;75.69;99639.75;5069886;28;20310;-56
2022/05/17 03:44:50;;;;;;;19.70;17.70;;;;;;;18.20;75.91;99646.53;5069094;28;20921;-55
2022/05/17 03:47:17;;;;;;;18.67;16.97;;;;;;;18.24;74.83;99648.19;5069684;28;20198;-58
2022/05/17 03:49:44;;;;;;;19.20;15.73;;;;;;;18.19;74.46;99648.25;5071417;28;20583;-58
2022/05/17 03:52:11;;;;;;;19.10;16.57;;;;;;;18.14;74.58;99652.66;5072922;28;20195;-58
2022/05/17 03:54:39;;;;;;;17.20;15.60;;;;;;;18.22;74.15;99657.75;5056547;28;20224;-57
2022/05/17 03:57:08;;;;;;;17.70;16.07;;;;;;;18.25;74.20;99653.38;5062381;28;20199;-55
2022/05/17 03:59:35;;;;;;;17.90;15.83;;;;;;;18.29;73.67;99654.22;5072762;28;20196;-57
2022/05/17 04:02:03;;;;;;;18.37;16.80;;;;;;;18.31;73.53;99654.19;5072920;28;20199;-58
2022/05/17 04:04:30;;;;;;;17.00;15.40;;;;;;;18.38;73.22;99655.81;5072591;28;20203;-57
2022/05/17 04:06:57;;;;;;;17.50;15.73;;;;;;;18.38;73.33;99655.81;5072771;28;20234;-58
2022/05/17 04:09:24;;;;;;;16.50;14.87;;;;;;;18.41;72.94;99661.84;5072603;28;20191;-57
2022/05/17 04:11:51;;;;;;;17.47;15.67;;;;;;;18.41;72.28;99650.56;5072925;28;20188;-58
2022/05/17 04:14:19;;;;;;;17.57;15.70;;;;;;;18.53;72.39;99666.06;5072435;28;20219;-57
2022/05/17 04:16:46;;;;;;;19.40;17.50;;;;;;;18.53;72.13;99666.06;5072119;28;20587;-57
2022/05/17 04:19:15;;;;;;;18.13;16.33;;;;;;;18.56;72.03;99661.69;5072365;28;20191;-57
2022/05/17 04:21:43;;;;;;;17.83;16.23;;;;;;;18.64;71.78;99669.41;5072525;28;20195;-57
2022/05/17 04:24:10;;;;;;;18.27;16.58;;;;;;;18.66;71.84;99657.22;5055962;28;20446;-57
2022/05/17 04:26:37;;;;;;;18.23;16.60;;;;;;;18.69;71.56;99658.03;5052146;28;20663;-57
2022/05/17 04:29:05;;;;;;;19.07;16.87;;;;;;;18.83;71.73;99657.84;5052329;28;20196;-58
2022/05/17 04:31:33;;;;;;;19.27;17.37;;;;;;;18.96;71.28;99656.78;5052483;28;20575;-56
2022/05/17 04:34:00;;;;;;;18.90;15.50;;;;;;;19.04;70.62;99654.06;5052201;28;20212;-56
2022/05/17 04:36:27;;;;;;;19.80;17.70;;;;;;;19.10;70.61;99653.97;5051758;28;20439;-57
2022/05/17 04:38:54;;;;;;;19.73;17.63;;;;;;;19.02;70.14;99656.69;5052388;28;20247;-57
2022/05/17 04:41:22;;;;;;;17.57;15.87;;;;;;;19.04;70.11;99660.13;5052295;28;20199;-56
2022/05/17 04:43:49;;;;;;;20.08;17.60;;;;;;;19.10;70.14;99657.44;5057906;28;20817;-57
2022/05/17 04:46:16;;;;;;;17.87;16.07;;;;;;;19.19;69.16;99662.50;5067400;28;20196;-62
2022/05/17 04:48:44;;;;;;;18.03;15.07;;;;;;;19.27;68.76;99657.16;5071188;28;20191;-63
2022/05/17 04:51:14;;;;;;;22.07;15.87;;;;;;;19.30;68.42;99647.56;5068933;28;20188;-63
2022/05/17 04:53:43;;;;;;;15.40;14.00;;;;;;;19.34;67.98;99654.44;5051789;28;20228;-62
2022/05/17 04:56:10;;;;;;;19.35;16.45;;;;;;;19.47;67.73;99655.13;5062801;28;20483;-62
2022/05/17 04:58:37;;;;;;;16.50;14.90;;;;;;;19.55;67.38;99657.59;5071893;28;20191;-62
2022/05/17 05:01:05;;;;;;;16.63;14.77;;;;;;;19.63;67.22;99648.75;5071482;28;20212;-62
2022/05/17 05:03:32;;;;;;;17.33;15.57;;;;;;;19.74;66.86;99651.16;5071691;28;20294;-64
2022/05/17 05:06:00;;;;;;;16.17;14.57;;;;;;;19.79;65.83;99646.72;5071442;28;20195;-62
2022/05/17 05:08:27;;;;;;;22.87;13.90;;;;;;;19.84;65.37;99645.75;5071005;28;20259;-63
2022/05/17 05:10:54;;;;;;;15.30;13.70;;;;;;;19.87;64.83;99652.66;5070501;28;20192;-64
2022/05/17 05:13:23;;;;;;;17.43;13.87;;;;;;;19.92;64.88;99648.22;5070915;28;20249;-62
2022/05/17 05:15:50;;;;;;;13.43;12.17;;;;;;;20.07;63.78;99652.28;5070520;28;20709;-62
2022/05/17 05:18:17;;;;;;;15.80;12.20;;;;;;;20.17;63.46;99651.19;5070912;28;20199;-62
2022/05/17 05:20:44;;;;;;;15.00;13.50;;;;;;;20.17;62.81;99633.78;5070574;28;20191;-62
2022/05/17 05:23:12;;;;;;;13.03;11.73;;;;;;;20.26;62.39;99659.75;5071012;28;20214;-62
2022/05/17 05:25:40;;;;;;;12.95;11.55;;;;;;;20.38;61.56;99662.09;5069911;28;20440;-62
2022/05/17 05:28:08;;;;;;;12.33;11.23;;;;;;;20.53;60.53;99660.91;5070554;28;20209;-62
2022/05/17 05:30:36;;;;;;;12.37;11.27;;;;;;;20.60;60.75;99670.34;5070720;28;20202;-63
2022/05/17 05:33:03;;;;;;;11.50;10.50;;;;;;;20.67;59.84;99665.84;5069379;28;20574;-62
2022/05/17 05:35:30;;;;;;;12.30;11.10;;;;;;;20.74;59.59;99660.44;5070167;28;20234;-64
2022/05/17 05:37:56;;;;;;;12.43;11.30;;;;;;;20.83;60.04;99667.22;5070141;28;20546;-62
2022/05/17 05:40:25;;;;;;;12.73;11.43;;;;;;;20.96;59.75;99668.66;5070259;28;20238;-58
2022/05/17 05:42:53;;;;;;;11.50;10.33;;;;;;;21.00;59.23;99670.31;5070202;28;20544;-57
2022/05/17 05:45:21;;;;;;;15.73;11.03;;;;;;;21.17;58.89;99671.69;5070098;28;20191;-57
2022/05/17 05:47:48;;;;;;;13.40;10.60;;;;;;;21.12;59.36;99660.44;5070235;28;20270;-56
2022/05/17 05:50:15;;;;;;;16.90;11.43;;;;;;;21.19;59.20;99661.19;5069987;28;20199;-62
2022/05/17 05:52:41;;;;;;;13.38;11.98;;;;;;;21.30;59.95;99663.53;5069271;28;20437;-62
2022/05/17 05:55:15;;;;;;;13.80;11.73;;;;;;;21.33;59.55;99659.09;5069870;28;20215;-62
2022/05/17 05:57:43;;;;;;;13.23;11.93;;;;;;;21.31;60.20;99666.13;5070130;28;20676;-57
2022/05/17 06:00:11;;;;;;;12.03;10.60;;;;;;;21.40;59.82;99649.34;5069903;28;20207;-56
2022/05/17 06:02:38;;;;;;;12.37;11.23;;;;;;;21.48;59.77;99650.84;5069674;28;20201;-57
2022/05/17 06:05:06;;;;;;;13.23;11.77;;;;;;;21.61;59.70;99652.28;5070124;28;20196;-62
2022/05/17 06:07:34;;;;;;;15.03;11.83;;;;;;;21.72;59.65;99650.25;5070315;28;20195;-62
2022/05/17 06:10:01;;;;;;;12.33;10.97;;;;;;;21.82;59.04;99647.34;5070101;28;20196;-62
2022/05/17 06:12:28;;;;;;;12.87;11.67;;;;;;;21.91;58.52;99652.38;5068795;28;20307;-62
2022/05/17 06:14:56;;;;;;;12.40;11.23;;;;;;;22.02;58.50;99659.06;5069747;28;20222;-62
2022/05/17 06:17:27;;;;;;;12.43;11.23;;;;;;;22.05;57.64;99645.03;5069242;28;20919;-63
2022/05/17 06:19:54;;;;;;;11.93;10.73;;;;;;;22.19;57.14;99637.63;5070073;28;20192;-62
2022/05/17 06:22:21;;;;;;;10.87;9.77;;;;;;;22.29;57.06;99647.81;5069129;28;20191;-62
2022/05/17 06:24:48;;;;;;;14.33;10.57;;;;;;;22.44;57.22;99649.13;5069351;28;20199;-61
2022/05/17 06:27:15;;;;;;;14.02;12.43;;;;;;;22.33;56.96;99602.28;5068137;28;20947;-57
2022/05/17 06:29:42;;;;;;;13.40;9.87;;;;;;;22.83;56.14;99650.56;5069534;28;20191;-58
2022/05/17 06:32:12;;;;;;;13.03;9.37;;;;;;;22.94;55.37;99647.59;5070052;28;20256;-57
2022/05/17 06:34:39;;;;;;;11.20;10.00;;;;;;;22.97;54.27;99644.03;5069749;28;20320;-58
2022/05/17 06:37:07;;;;;;;10.13;9.20;;;;;;;22.94;54.26;99644.97;5069698;28;20198;-56
2022/05/17 06:39:34;;;;;;;10.50;9.20;;;;;;;23.01;54.31;99646.50;5069543;28;20234;-56
2022/05/17 06:42:01;;;;;;;14.10;10.20;;;;;;;22.94;54.06;99634.50;5069366;28;20191;-56
2022/05/17 06:44:29;;;;;;;11.47;10.37;;;;;;;23.03;54.30;99634.22;5068945;28;20194;-56
2022/05/17 06:46:58;;;;;;;11.27;9.27;;;;;;;23.10;52.37;99634.88;5069388;28;20198;-56
2022/05/17 06:49:27;;;;;;;12.87;9.90;;;;;;;23.10;53.14;99643.56;5068623;28;20198;-56
2022/05/17 06:51:57;;;;;;;10.40;9.40;;;;;;;23.12;53.68;99630.44;5068717;28;20192;-57
2022/05/17 06:54:24;;;;;;;10.83;9.17;;;;;;;23.10;53.50;99629.63;5068445;28;20215;-57
2022/05/17 06:56:51;;;;;;;10.63;9.63;;;;;;;22.81;53.46;99592.09;5068039;28;20210;-57
2022/05/17 06:59:18;;;;;;;12.97;9.83;;;;;;;23.16;53.43;99629.41;5068109;28;20179;-57
2022/05/17 07:01:47;;;;;;;12.00;9.63;;;;;;;23.28;52.84;99634.28;5068407;28;20213;-57
2022/05/17 07:04:14;;;;;;;10.53;9.43;;;;;;;23.31;53.04;99627.16;5068559;28;20250;-57
2022/05/17 07:06:43;;;;;;;10.17;8.80;;;;;;;23.33;52.93;99624.47;5068320;28;20187;-57
2022/05/17 07:09:12;;;;;;;10.43;9.33;;;;;;;23.41;53.10;99622.50;5069069;28;20204;-57
2022/05/17 07:14:23;;;;;;;10.57;9.57;;;;;;;23.66;51.45;99619.88;5068982;28;20272;-57
2022/05/17 07:16:50;;;;;;;11.03;9.60;;;;;;;23.75;50.81;99612.56;5069084;28;20666;-57
2022/05/17 07:19:17;;;;;;;10.70;9.60;;;;;;;23.82;50.43;99611.41;5068058;28;20444;-57
2022/05/17 07:21:45;;;;;;;9.80;8.97;;;;;;;23.99;49.70;99609.06;5068847;28;20202;-57
2022/05/17 07:24:12;;;;;;;10.13;8.90;;;;;;;24.04;49.44;99614.13;5070053;28;20314;-57
2022/05/17 07:26:39;;;;;;;10.80;9.80;;;;;;;24.14;49.21;99609.44;5072071;28;20434;-57
2022/05/17 07:29:06;;;;;;;10.13;9.03;;;;;;;24.21;48.66;99608.28;5072506;28;20187;-57
2022/05/17 07:31:33;;;;;;;11.37;9.80;;;;;;;24.31;48.74;99605.25;5072234;28;20651;-58
2022/05/17 07:33:59;;;;;;;11.77;9.40;;;;;;;24.38;48.65;99603.25;5072748;28;20196;-57
2022/05/17 07:36:27;;;;;;;9.97;9.07;;;;;;;24.50;48.54;99608.06;5072316;28;20211;-58
2022/05/17 07:38:57;;;;;;;9.20;8.40;;;;;;;24.49;47.88;99598.47;5072234;28;20199;-57
2022/05/17 07:41:24;;;;;;;10.80;9.40;;;;;;;24.57;48.33;99602.50;5072403;28;20200;-58
2022/05/17 07:43:51;;;;;;;13.97;9.37;;;;;;;24.64;47.32;99600.47;5072431;28;20677;-58
2022/05/17 07:46:18;;;;;;;12.75;9.70;;;;;;;24.74;47.04;99598.34;5072321;28;20444;-58
2022/05/17 07:48:45;;;;;;;9.57;8.77;;;;;;;24.81;45.92;99592.81;5072408;28;20195;-58
2022/05/17 07:51:12;;;;;;;10.43;8.90;;;;;;;24.91;45.64;99601.22;5072024;28;20192;-58
2022/05/17 07:53:39;;;;;;;9.60;8.70;;;;;;;24.73;45.49;99586.13;5072182;28;20650;-58
2022/05/17 07:56:07;;;;;;;9.63;8.83;;;;;;;24.92;46.22;99587.13;5071711;28;20609;-58
2022/05/17 07:58:34;;;;;;;10.27;9.20;;;;;;;24.99;45.82;99593.84;5072305;28;20195;-58
2022/05/17 08:01:02;;;;;;;9.52;8.57;;;;;;;25.16;45.08;99592.22;5070676;28;20438;-58
2022/05/17 08:03:29;;;;;;;9.47;8.67;;;;;;;25.29;45.04;99589.09;5072265;28;20642;-58
2022/05/17 08:05:56;;;;;;;10.37;9.47;;;;;;;25.33;45.47;99588.91;5072033;28;20674;-58
2022/05/17 08:08:23;;;;;;;10.57;9.57;;;;;;;25.19;45.83;99583.34;5070890;28;20445;-57
2022/05/17 08:10:50;;;;;;;10.00;9.17;;;;;;;25.48;45.47;99582.16;5071638;28;20203;-58
2022/05/17 08:13:20;;;;;;;10.37;9.33;;;;;;;25.57;44.72;99579.16;5071602;28;20195;-57
2022/05/17 08:15:48;;;;;;;10.63;9.73;;;;;;;25.60;44.99;99581.66;5071809;28;20697;-58
2022/05/17 08:18:15;;;;;;;11.13;10.10;;;;;;;25.68;44.93;99579.53;5071530;28;20202;-58
2022/05/17 08:20:42;;;;;;;11.10;10.20;;;;;;;25.74;44.61;99569.56;5071176;28;20442;-58
2022/05/17 08:23:09;;;;;;;13.83;9.60;;;;;;;25.90;44.02;99577.66;5071624;28;20191;-58
2022/05/17 08:28:22;;;;;;;11.77;10.57;;;;;;;25.80;44.32;99565.81;5071663;28;20237;-58
2022/05/17 08:30:49;;;;;;;10.40;9.60;;;;;;;25.83;44.36;99563.06;5071667;28;20198;-58
2022/05/17 08:33:17;;;;;;;10.90;9.88;;;;;;;25.81;45.03;99549.09;5071258;28;20198;-58
2022/05/17 08:35:49;;;;;;;12.50;9.70;;;;;;;25.84;43.66;99559.50;5070676;28;20277;-56
2022/05/17 08:38:18;;;;;;;16.63;10.50;;;;;;;25.92;43.84;99552.13;5071256;28;20235;-58
2022/05/17 08:41:01;;;;;;;10.60;9.65;;;;;;;26.04;43.57;99541.00;5071266;28;20820;-58
2022/05/17 08:43:41;;;;;;;10.37;9.37;;;;;;;26.24;42.26;99540.97;5071241;28;20188;-56
2022/05/17 08:46:22;;;;;;;9.40;8.60;;;;;;;26.42;42.00;99548.94;5071353;28;20202;-58
2022/05/17 08:48:54;;;;;;;10.93;9.90;;;;;;;26.58;41.83;99542.88;5070770;28;20440;-58
2022/05/17 08:51:32;;;;;;;10.70;9.80;;;;;;;26.76;41.25;99535.84;5071512;28;20202;-58
2022/05/17 08:54:00;;;;;;;13.80;10.15;;;;;;;26.69;41.46;99537.94;5071170;28;20252;-58
2022/05/17 08:56:30;;;;;;;11.48;10.23;;;;;;;26.66;41.80;99531.97;5070455;28;20269;-59
2022/05/17 08:59:00;;;;;;;10.20;9.27;;;;;;;26.55;42.31;99537.75;5070634;28;20219;-58
2022/05/17 09:01:36;;;;;;;13.45;10.35;;;;;;;26.62;42.12;99531.25;5070485;28;20449;-58
2022/05/17 09:04:33;;;;;;;10.77;9.38;;;;;;;26.72;41.98;99529.88;5070318;28;20675;-59
2022/05/17 09:07:08;;;;;;;9.98;9.00;;;;;;;26.82;41.29;99527.66;5070395;28;20542;-58
2022/05/17 09:09:45;;;;;;;11.18;10.13;;;;;;;26.74;41.52;99530.66;5069680;28;21269;-58
2022/05/17 09:12:25;;;;;;;10.77;9.73;;;;;;;26.72;41.27;99527.25;5070572;28;20563;-58
2022/05/17 09:14:56;;;;;;;11.02;9.93;;;;;;;26.71;41.25;99524.66;5070559;28;20555;-58
2022/05/17 09:17:25;;;;;;;11.65;9.93;;;;;;;26.82;41.59;99519.75;5070422;28;20203;-58
2022/05/17 09:19:53;;;;;;;11.05;9.15;;;;;;;26.81;40.83;99518.06;5070225;28;20221;-58
2022/05/17 09:22:21;;;;;;;11.02;9.98;;;;;;;26.93;40.98;99513.03;5070257;28;20574;-57
2022/05/17 09:24:56;;;;;;;10.48;9.60;;;;;;;26.95;40.01;99512.94;5070341;28;20194;-58
2022/05/17 09:27:26;;;;;;;10.70;9.68;;;;;;;26.98;40.31;99510.16;5070170;28;20665;-57
2022/05/17 09:30:04;;;;;;;10.45;9.43;;;;;;;27.04;40.43;99512.47;5069234;28;20452;-57
2022/05/17 09:32:34;;;;;;;9.80;8.80;;;;;;;27.25;39.18;99511.38;5069908;28;20192;-58
2022/05/17 09:35:04;;;;;;;9.55;8.80;;;;;;;27.35;38.91;99502.06;5070021;28;20573;-57
2022/05/17 09:37:36;;;;;;;9.88;9.00;;;;;;;27.50;39.83;99497.78;5069959;28;20227;-57
2022/05/17 09:40:06;;;;;;;11.18;9.80;;;;;;;27.69;40.02;99500.34;5069808;28;20269;-57
2022/05/17 09:42:36;;;;;;;10.82;8.98;;;;;;;27.85;38.01;99496.78;5069249;28;20437;-57
2022/05/17 09:45:11;;;;;;;10.38;8.63;;;;;;;27.98;37.56;99489.03;5069501;28;20191;-58
2022/05/17 09:47:44;;;;;;;9.68;8.68;;;;;;;28.05;37.33;99485.16;5069437;28;20206;-58
2022/05/17 09:53:05;;;;;;;12.65;9.52;;;;;;;28.22;35.85;99486.84;5070539;28;20895;-64
2022/05/17 09:55:33;;;;;;;9.30;8.55;;;;;;;28.25;35.57;99482.25;5069659;28;20267;-64
2022/05/17 09:58:03;;;;;;;9.23;8.05;;;;;;;28.25;35.91;99474.31;5069586;28;20306;-64
2022/05/17 10:00:35;;;;;;;9.95;8.77;;;;;;;28.29;36.43;99472.38;5069460;28;20196;-63
2022/05/17 10:03:05;;;;;;;9.65;8.88;;;;;;;27.94;37.79;99459.28;5069133;28;20442;-63
2022/05/17 10:05:45;;;;;;;9.07;8.43;;;;;;;27.94;37.02;99467.22;5069756;28;20206;-63
2022/05/17 10:08:31;;;;;;;8.60;7.68;;;;;;;27.95;35.66;99465.44;5069696;28;20565;-63
2022/05/17 10:11:06;;;;;;;9.00;8.00;;;;;;;27.97;36.07;99455.63;5069032;28;20429;-63
2022/05/17 10:13:42;;;;;;;9.48;8.05;;;;;;;27.90;35.07;99455.13;5069740;28;20187;-64
2022/05/17 10:16:14;;;;;;;9.23;7.65;;;;;;;27.92;34.62;99463.81;5069571;28;20242;-64
2022/05/17 10:18:45;;;;;;;10.23;6.95;;;;;;;27.90;33.71;99449.84;5069267;28;20693;-62
2022/05/17 10:21:19;;;;;;;8.25;7.05;;;;;;;27.99;33.60;99445.84;5069372;28;20272;-64
2022/05/17 10:23:56;;;;;;;9.57;7.63;;;;;;;28.08;34.21;99453.28;5068881;28;20437;-63
2022/05/17 10:26:31;;;;;;;11.07;7.22;;;;;;;28.33;33.08;99442.16;5069089;28;20662;-63
2022/05/17 10:29:03;;;;;;;8.13;7.43;;;;;;;28.52;33.36;99442.81;5069046;28;20195;-64
2022/05/17 10:31:36;;;;;;;10.13;7.88;;;;;;;28.57;33.37;99433.69;5068448;28;20434;-63
2022/05/17 10:34:25;;;;;;;7.25;6.60;;;;;;;28.61;32.37;99429.06;5069388;28;20199;-63
2022/05/17 10:36:58;;;;;;;8.00;7.22;;;;;;;28.77;33.88;99429.91;5069140;28;20220;-63
2022/05/17 10:39:31;;;;;;;11.43;8.90;;;;;;;29.00;34.23;99420.59;5069000;28;20238;-63
2022/05/17 10:41:58;;;;;;;8.65;6.47;;;;;;;29.03;31.73;99413.34;5069652;28;20195;-63
2022/05/17 10:44:37;;;;;;;7.93;7.20;;;;;;;29.04;32.54;99404.44;5069829;28;20200;-64
2022/05/17 10:47:22;;;;;;;7.75;7.05;;;;;;;28.98;31.51;99414.56;5069014;28;20556;-64
2022/05/17 10:50:04;;;;;;;8.88;6.15;;;;;;;28.93;29.41;99406.88;5068752;28;20196;-64
2022/05/17 10:52:40;;;;;;;7.40;5.30;;;;;;;29.04;28.11;99403.59;5067621;28;20457;-64
2022/05/17 10:55:14;;;;;;;4.55;4.22;;;;;;;29.10;25.56;99403.22;5068757;28;20598;-63
2022/05/17 10:57:52;;;;;;;4.30;3.90;;;;;;;29.13;25.01;99400.38;5069590;28;20605;-65
2022/05/17 11:00:23;;;;;;;4.15;3.60;;;;;;;29.15;23.11;99394.06;5073203;28;20219;-62
2022/05/17 11:03:27;;;;;;;4.57;3.35;;;;;;;29.30;23.74;99394.09;5072926;28;20191;-63
2022/05/17 11:06:05;;;;;;;4.05;2.90;;;;;;;29.28;22.70;99370.38;5072867;28;20188;-58
2022/05/17 11:08:42;;;;;;;3.45;3.15;;;;;;;29.38;23.49;99389.19;5073109;28;20570;-58
2022/05/17 11:11:25;;;;;;;4.07;3.08;;;;;;;29.43;21.31;99393.25;5072595;28;20476;-58
2022/05/17 11:13:58;;;;;;;3.55;2.97;;;;;;;29.55;19.18;99384.53;5072841;28;20191;-58
2022/05/17 11:16:29;;;;;;;2.78;2.58;;;;;;;29.65;19.92;99382.16;5073014;28;20262;-58
2022/05/17 11:19:03;;;;;;;4.60;4.25;;;;;;;29.77;22.40;99378.72;5072672;28;20202;-58
2022/05/17 11:21:36;;;;;;;3.30;3.10;;;;;;;29.92;21.70;99372.47;5073503;28;20630;-67
2022/05/17 11:24:15;;;;;;;3.72;3.42;;;;;;;30.04;21.69;99362.88;5072761;28;20504;-63
2022/05/17 11:27:13;;;;;;;5.88;3.83;;;;;;;30.13;21.49;99371.09;5072794;28;20251;-62
2022/05/17 11:30:01;;;;;;;7.43;4.70;;;;;;;30.21;22.53;99357.31;5072696;28;20201;-62
2022/05/17 11:32:30;;;;;;;4.78;4.28;;;;;;;30.37;22.26;99344.75;5072511;28;20199;-63
2022/05/17 11:35:02;;;;;;;4.38;4.00;;;;;;;30.33;22.92;99340.56;5072346;28;20195;-63
2022/05/17 11:37:59;;;;;;;6.15;4.78;;;;;;;30.55;23.35;99343.50;5072328;28;20212;-63
2022/05/17 11:41:05;;;;;;;6.60;5.18;;;;;;;30.68;23.41;99346.19;5072599;28;20680;-63
2022/05/17 11:44:12;;;;;;;6.95;4.70;;;;;;;30.76;22.99;99326.16;5072718;28;20194;-63
2022/05/17 11:46:45;;;;;;;5.03;4.60;;;;;;;30.70;22.99;99338.97;5071998;28;20245;-63